Time;durP1;ratioP1;P1;durP2;ratioP2;P2;SDS_P1;SDS_P2;PMS_P1;PMS_P2;Temp;Humidity;BMP_temperature;BMP_pressure;BME280_temperature;BME280_humidity;BME280_pressure;Samples;Min_cycle;Max_cycle;Signal;HPM_P1;HPM_P2
2023/03/22 00:02:25;;;;;;;8.43;7.40;;;;;;;7.63;82.86;98644.03;5074398;28;41766;-83
2023/03/22 00:04:55;;;;;;;10.00;6.87;;;;;;;7.72;82.72;98666.38;5074585;28;41384;-83
2023/03/22 00:07:23;;;;;;;7.60;6.80;;;;;;;7.70;82.70;98665.63;5074825;28;40074;-82
2023/03/22 00:09:51;;;;;;;9.27;7.33;;;;;;;7.52;82.93;98636.69;5091246;28;41741;-86
2023/03/22 00:12:18;;;;;;;8.77;7.77;;;;;;;7.48;82.59;98635.16;5091464;28;41661;-83
2023/03/22 00:14:47;;;;;;;8.33;7.43;;;;;;;7.64;82.67;98658.06;5074311;28;41127;-81
2023/03/22 00:17:15;;;;;;;9.33;7.10;;;;;;;7.62;82.70;98668.69;5091847;28;39958;-82
2023/03/22 00:19:43;;;;;;;9.37;6.93;;;;;;;7.61;82.60;98663.47;5091164;28;42081;-82
2023/03/22 00:22:13;;;;;;;9.27;7.27;;;;;;;7.33;82.78;98614.88;5090758;28;42690;-79
2023/03/22 00:24:41;;;;;;;9.47;7.03;;;;;;;7.48;82.41;98639.56;5074498;28;41397;-81
2023/03/22 00:27:08;;;;;;;7.27;6.43;;;;;;;7.52;82.32;98651.66;5074575;28;38805;-86
2023/03/22 00:29:36;;;;;;;7.73;6.93;;;;;;;7.53;82.40;98669.16;5074219;28;40815;-84
2023/03/22 00:32:04;;;;;;;7.70;6.17;;;;;;;7.42;82.52;98646.00;5074471;28;41935;-85
2023/03/22 00:34:32;;;;;;;8.30;7.27;;;;;;;7.40;82.56;98650.53;5091149;28;42661;-84
2023/03/22 00:37:00;;;;;;;8.83;6.50;;;;;;;7.51;83.31;98663.13;5074360;28;40381;-83
2023/03/22 00:39:30;;;;;;;8.30;7.50;;;;;;;7.24;83.07;98615.38;5074023;28;41770;-83
2023/03/22 00:41:58;;;;;;;9.37;7.43;;;;;;;7.48;83.59;98656.22;5074432;28;41638;-85
2023/03/22 00:44:26;;;;;;;7.93;6.27;;;;;;;7.47;83.05;98654.53;5073624;28;40932;-84
2023/03/22 00:46:53;;;;;;;8.10;6.90;;;;;;;7.46;83.42;98647.56;5074137;28;39968;-82
2023/03/22 00:49:21;;;;;;;7.57;6.13;;;;;;;7.45;83.27;98645.00;5091109;28;41944;-84
2023/03/22 00:51:49;;;;;;;6.83;5.63;;;;;;;7.43;82.88;98645.06;5074105;28;41802;-81
2023/03/22 00:54:16;;;;;;;5.77;5.23;;;;;;;7.41;82.69;98639.06;5074111;28;41036;-85
2023/03/22 00:56:46;;;;;;;7.30;5.67;;;;;;;7.40;82.61;98632.09;5073841;28;38981;-85
2023/03/22 00:59:16;;;;;;;5.93;5.13;;;;;;;7.39;82.74;98635.66;5087839;28;42776;-87
2023/03/22 01:01:44;;;;;;;6.33;5.67;;;;;;;7.28;82.53;98616.94;5091052;28;41885;-87
2023/03/22 01:04:16;;;;;;;5.17;4.67;;;;;;;7.25;82.46;98618.88;5074836;28;41343;-85
2023/03/22 01:06:45;;;;;;;6.23;5.63;;;;;;;7.13;82.34;98597.53;5088017;28;39842;-84
2023/03/22 01:09:13;;;;;;;6.17;5.40;;;;;;;7.39;82.03;98635.66;5093514;28;41534;-85
2023/03/22 01:11:42;;;;;;;7.17;5.97;;;;;;;7.34;81.94;98611.31;5077242;28;41992;-84
2023/03/22 01:14:12;;;;;;;6.13;5.33;;;;;;;7.54;81.77;98629.53;5094543;28;41538;-82
2023/03/22 01:16:40;;;;;;;7.77;6.97;;;;;;;7.64;82.18;98623.78;5077403;28;39015;-83
2023/03/22 01:19:07;;;;;;;8.40;6.87;;;;;;;7.66;81.63;98616.66;5094446;28;41968;-83
2023/03/22 01:21:35;;;;;;;7.40;6.70;;;;;;;7.81;81.53;98624.56;5094215;28;43742;-82
2023/03/22 01:24:03;;;;;;;9.60;6.93;;;;;;;7.90;80.79;98620.59;5077035;28;41256;-82
2023/03/22 01:26:31;;;;;;;7.47;6.67;;;;;;;7.97;80.46;98615.81;5076952;28;39142;-84
2023/03/22 01:28:59;;;;;;;7.47;5.93;;;;;;;7.92;80.39;98601.06;5077143;28;41032;-85
2023/03/22 01:31:29;;;;;;;6.63;6.03;;;;;;;8.06;80.01;98613.50;5076750;28;41871;-82
2023/03/22 01:33:56;;;;;;;6.50;5.73;;;;;;;8.17;80.09;98612.88;5076650;28;41549;-83
2023/03/22 01:36:24;;;;;;;7.50;5.70;;;;;;;8.22;80.17;98611.69;5094146;28;40807;-81
2023/03/22 01:38:52;;;;;;;6.17;5.57;;;;;;;8.14;79.72;98582.28;5077337;28;41003;-83
2023/03/22 01:41:21;;;;;;;8.33;6.60;;;;;;;8.33;79.70;98602.34;5076850;28;41278;-83
2023/03/22 01:44:08;;;;;;;6.17;5.43;;;;;;;8.39;79.67;98599.38;5093998;28;42469;-86
2023/03/22 01:46:38;;;;;;;5.83;5.23;;;;;;;8.41;79.64;98595.69;5077076;28;39280;-83
2023/03/22 01:49:10;;;;;;;6.60;6.00;;;;;;;8.36;79.46;98581.06;5093814;28;43227;-84
2023/03/22 01:51:41;;;;;;;7.07;6.10;;;;;;;8.48;79.31;98593.56;5090603;28;42717;-85
2023/03/22 01:54:22;;;;;;;5.80;5.30;;;;;;;8.50;79.35;98581.97;5090400;28;42547;-83
2023/03/22 01:56:50;;;;;;;6.03;5.40;;;;;;;8.47;79.27;98578.66;5090540;28;40138;-84
2023/03/22 01:59:29;;;;;;;5.10;4.63;;;;;;;8.59;79.28;98585.84;5076414;28;40787;-84
2023/03/22 02:02:17;;;;;;;5.90;5.13;;;;;;;8.49;79.43;98560.94;5076624;28;41965;-83
2023/03/22 02:04:56;;;;;;;5.80;4.80;;;;;;;8.66;79.18;98579.28;5090943;28;42354;-80
2023/03/22 02:07:26;;;;;;;5.40;4.90;;;;;;;8.38;79.24;98527.28;5093917;28;40012;-85
2023/03/22 02:09:56;;;;;;;5.57;5.07;;;;;;;8.69;79.20;98573.81;5076378;28;40848;-86
2023/03/22 02:12:37;;;;;;;5.77;5.27;;;;;;;8.65;79.26;98553.84;5076459;28;41982;-81
2023/03/22 02:15:24;;;;;;;5.83;5.23;;;;;;;8.78;79.01;98573.25;5076441;28;41156;-84
2023/03/22 02:18:22;;;;;;;5.73;5.13;;;;;;;8.82;78.87;98580.06;5093707;28;38989;-82
2023/03/22 02:21:29;;;;;;;6.53;5.00;;;;;;;8.77;78.99;98570.75;5075511;28;40498;-80
2023/03/22 02:24:26;;;;;;;6.73;5.10;;;;;;;8.88;78.72;98585.00;5079701;28;41606;-79
2023/03/22 02:27:19;;;;;;;4.87;4.23;;;;;;;8.78;78.78;98552.13;5102299;28;42423;-80
2023/03/22 02:29:52;;;;;;;6.20;5.53;;;;;;;8.92;79.20;98577.72;5076321;28;41237;-82
2023/03/22 02:32:53;;;;;;;7.73;6.13;;;;;;;8.93;80.14;98560.94;5090370;28;42692;-80
2023/03/22 02:35:33;;;;;;;7.17;6.17;;;;;;;8.94;79.89;98558.19;5076004;28;41663;-83
2023/03/22 02:38:20;;;;;;;7.83;6.23;;;;;;;8.84;80.07;98540.38;5090748;28;43543;-85
2023/03/22 02:40:54;;;;;;;6.10;5.50;;;;;;;8.99;79.98;98561.44;5093269;28;39178;-84
2023/03/22 02:43:33;;;;;;;7.27;5.87;;;;;;;9.00;79.78;98555.19;5076095;28;41542;-84
2023/03/22 02:46:08;;;;;;;7.53;5.30;;;;;;;9.00;79.82;98552.56;5075594;28;41423;-85
2023/03/22 02:48:42;;;;;;;5.90;5.30;;;;;;;8.99;79.92;98561.44;5076594;28;41337;-83
2023/03/22 02:51:18;;;;;;;6.23;5.63;;;;;;;8.96;80.38;98551.03;5093197;28;40197;-82
2023/03/22 02:53:53;;;;;;;5.97;5.23;;;;;;;8.55;80.16;98487.53;5092804;28;40790;-82
2023/03/22 02:56:40;;;;;;;5.53;5.03;;;;;;;8.83;80.41;98528.97;5075874;28;42824;-85
2023/03/22 02:59:12;;;;;;;7.20;5.30;;;;;;;8.81;80.42;98527.34;5076027;28;41460;-82
2023/03/22 03:01:44;;;;;;;6.70;5.20;;;;;;;8.86;80.35;98527.94;5075588;28;39226;-85
2023/03/22 03:04:17;;;;;;;5.50;5.00;;;;;;;8.93;80.10;98542.44;5075386;28;41757;-81
2023/03/22 03:06:48;;;;;;;5.93;5.10;;;;;;;8.94;79.97;98539.72;5093066;28;41760;-86
2023/03/22 03:09:19;;;;;;;6.00;5.20;;;;;;;9.04;80.02;98555.84;5075133;28;42373;-81
2023/03/22 03:11:50;;;;;;;5.67;5.13;;;;;;;8.97;80.11;98538.69;5089404;28;40200;-82
2023/03/22 03:14:24;;;;;;;5.67;5.00;;;;;;;9.02;80.12;98551.63;5075874;28;40646;-84
2023/03/22 03:17:08;;;;;;;6.60;6.00;;;;;;;8.87;79.90;98530.47;5079351;28;41829;-83
2023/03/22 03:19:42;;;;;;;6.23;5.43;;;;;;;8.85;79.75;98532.38;5080537;28;41140;-81
2023/03/22 03:22:29;;;;;;;5.90;5.40;;;;;;;8.96;79.70;98550.19;5080855;28;39786;-80
2023/03/22 03:25:06;;;;;;;5.93;5.33;;;;;;;8.97;79.47;98552.75;5098861;28;41802;-82
2023/03/22 03:27:42;;;;;;;5.80;5.20;;;;;;;8.96;79.27;98556.31;5095801;28;42418;-79
2023/03/22 03:30:15;;;;;;;6.00;5.40;;;;;;;8.97;79.30;98558.03;5075846;28;42348;-85
2023/03/22 03:32:47;;;;;;;6.33;4.97;;;;;;;8.90;79.29;98545.28;5075333;28;38579;-83
2023/03/22 03:35:22;;;;;;;5.27;4.77;;;;;;;8.84;79.26;98535.94;5091735;28;40802;-80
2023/03/22 03:37:56;;;;;;;4.40;4.00;;;;;;;9.05;79.00;98564.63;5075679;28;42918;-82
2023/03/22 03:40:27;;;;;;;5.00;4.50;;;;;;;8.88;79.15;98531.34;5075119;28;41025;-85
2023/03/22 03:43:02;;;;;;;5.70;5.17;;;;;;;9.07;79.06;98552.16;5075081;28;39056;-83
2023/03/22 03:45:31;;;;;;;5.97;5.23;;;;;;;9.14;79.05;98564.09;5090362;28;41954;-80
2023/03/22 03:48:04;;;;;;;6.77;5.10;;;;;;;9.10;78.88;98558.13;5074403;28;42801;-80
2023/03/22 03:50:32;;;;;;;6.10;5.27;;;;;;;9.21;79.38;98568.03;5091874;28;42020;-84
2023/03/22 03:53:00;;;;;;;6.50;5.80;;;;;;;9.22;79.13;98567.09;5075092;28;39425;-84
2023/03/22 03:55:29;;;;;;;6.97;5.47;;;;;;;9.13;78.80;98549.16;5074602;28;40618;-87
2023/03/22 03:57:59;;;;;;;5.87;5.03;;;;;;;9.23;79.08;98574.06;5074716;28;42802;-84
2023/03/22 04:00:27;;;;;;;5.53;5.03;;;;;;;9.22;78.88;98572.38;5091457;28;42595;-83
2023/03/22 04:03:24;;;;;;;5.30;4.77;;;;;;;9.08;78.98;98559.16;5082846;28;39331;-83
2023/03/22 04:06:23;;;;;;;9.57;5.77;;;;;;;9.18;79.17;98574.34;5074762;28;40511;-80
2023/03/22 04:08:56;;;;;;;7.30;6.47;;;;;;;9.15;80.53;98565.78;5088594;28;42719;-83
2023/03/22 04:11:29;;;;;;;8.73;6.97;;;;;;;8.98;80.74;98543.88;5074443;28;42261;-81
2023/03/22 04:14:02;;;;;;;9.20;7.67;;;;;;;9.02;81.38;98546.34;5074694;28;40180;-84
2023/03/22 04:16:30;;;;;;;9.30;7.67;;;;;;;9.12;81.14;98566.81;5091219;28;41742;-84
2023/03/22 04:18:58;;;;;;;7.63;6.70;;;;;;;9.14;81.04;98564.94;5074494;28;41564;-80
2023/03/22 04:21:26;;;;;;;5.93;5.33;;;;;;;9.11;80.85;98549.25;5074496;28;41682;-82
2023/03/22 04:23:59;;;;;;;6.77;6.10;;;;;;;9.05;80.66;98533.78;5091366;28;39990;-82
2023/03/22 04:26:30;;;;;;;6.77;6.07;;;;;;;9.24;80.41;98554.63;5074347;28;41737;-86
2023/03/22 04:29:20;;;;;;;6.80;5.70;;;;;;;9.27;80.94;98554.47;5087914;28;42821;-84
2023/03/22 04:31:53;;;;;;;6.67;5.80;;;;;;;9.30;80.51;98549.81;5074597;28;42249;-84
2023/03/22 04:34:30;;;;;;;6.33;5.70;;;;;;;9.33;80.32;98546.97;5074679;28;40047;-83
2023/03/22 04:37:02;;;;;;;5.93;5.33;;;;;;;9.29;79.92;98532.25;5074059;28;40555;-81
2023/03/22 04:39:34;;;;;;;7.00;5.80;;;;;;;9.45;79.77;98542.72;5074355;28;41707;-85
2023/03/22 04:42:21;;;;;;;6.50;5.60;;;;;;;9.47;79.74;98546.13;5091292;28;41233;-85
2023/03/22 04:44:56;;;;;;;6.40;5.20;;;;;;;9.50;79.83;98530.06;5092582;28;40159;-83
2023/03/22 04:47:24;;;;;;;5.13;4.63;;;;;;;9.52;79.91;98537.91;5094466;28;42565;-87
2023/03/22 04:49:52;;;;;;;5.47;4.97;;;;;;;9.54;79.67;98526.28;5077461;28;41683;-87
2023/03/22 04:52:20;;;;;;;6.27;5.07;;;;;;;9.55;79.73;98533.25;5094726;28;42443;-86
2023/03/22 04:54:52;;;;;;;6.07;5.47;;;;;;;9.46;80.59;98507.41;5092193;28;40108;-86
2023/03/22 04:57:21;;;;;;;8.37;6.53;;;;;;;9.45;80.35;98505.72;5077759;28;40553;-85
2023/03/22 04:59:49;;;;;;;6.07;5.47;;;;;;;9.55;80.14;98514.75;5094382;28;42902;-84
2023/03/22 05:02:19;;;;;;;7.03;6.33;;;;;;;9.53;80.99;98506.06;5094343;28;42464;-82
2023/03/22 05:04:49;;;;;;;7.10;6.10;;;;;;;9.38;80.89;98485.91;5077686;28;40885;-85
2023/03/22 05:07:31;;;;;;;6.90;5.20;;;;;;;9.43;80.81;98494.38;5077575;28;41834;-86
2023/03/22 05:10:01;;;;;;;9.80;6.77;;;;;;;9.37;81.06;98492.16;5077071;28;41576;-82
2023/03/22 05:12:30;;;;;;;6.60;5.70;;;;;;;9.29;80.99;98489.13;5077379;28;42230;-85
2023/03/22 05:15:20;;;;;;;6.10;5.50;;;;;;;9.19;81.64;98480.09;5088642;28;40039;-82
2023/03/22 05:17:52;;;;;;;6.40;5.80;;;;;;;9.09;81.80;98481.63;5095104;28;41729;-80
2023/03/22 05:20:21;;;;;;;6.77;5.67;;;;;;;8.98;82.27;98488.41;5103465;28;42931;-80
2023/03/22 05:23:01;;;;;;;6.70;6.00;;;;;;;8.88;81.93;98489.94;5081469;28;41031;-85
2023/03/22 05:25:30;;;;;;;7.23;5.33;;;;;;;8.78;82.28;98499.34;5093117;28;39679;-82
2023/03/22 05:28:00;;;;;;;8.43;6.30;;;;;;;8.67;82.70;98485.94;5077256;28;40397;-84
2023/03/22 05:30:36;;;;;;;9.40;7.20;;;;;;;8.68;83.88;98497.34;5077567;28;41459;-84
2023/03/22 05:33:15;;;;;;;8.90;6.93;;;;;;;8.54;82.98;98490.25;5091038;28;42271;-80
2023/03/22 05:35:46;;;;;;;7.50;6.30;;;;;;;8.60;83.44;98516.31;5077611;28;39742;-79
2023/03/22 05:38:14;;;;;;;6.83;6.13;;;;;;;8.59;83.22;98506.69;5077088;28;41317;-83
2023/03/22 05:40:47;;;;;;;7.73;6.90;;;;;;;8.58;83.77;98503.19;5076619;28;41884;-84
2023/03/22 05:43:15;;;;;;;7.87;7.07;;;;;;;8.58;84.12;98508.47;5076939;28;41527;-83
2023/03/22 05:45:47;;;;;;;10.07;6.90;;;;;;;8.60;83.80;98508.38;5092867;28;39919;-82
2023/03/22 05:48:38;;;;;;;8.50;7.50;;;;;;;8.54;83.70;98511.38;5090133;28;40454;-82
2023/03/22 05:51:07;;;;;;;7.63;6.83;;;;;;;8.51;83.82;98493.09;5092942;28;43598;-83
2023/03/22 05:53:36;;;;;;;10.70;7.50;;;;;;;8.74;83.38;98521.59;5076460;28;42304;-80
2023/03/22 05:56:11;;;;;;;7.43;6.40;;;;;;;8.76;83.41;98506.53;5093276;28;41924;-84
2023/03/22 05:58:42;;;;;;;8.63;7.53;;;;;;;9.01;83.06;98527.00;5076833;28;40646;-80
2023/03/22 06:01:15;;;;;;;8.20;6.70;;;;;;;9.06;82.85;98516.13;5093182;28;43730;-82
2023/03/22 06:03:50;;;;;;;9.13;8.10;;;;;;;9.29;82.51;98536.69;5093794;28;41632;-86
2023/03/22 06:06:28;;;;;;;8.27;6.13;;;;;;;9.30;81.95;98518.09;5076907;28;38779;-84
2023/03/22 06:09:05;;;;;;;7.63;6.93;;;;;;;9.48;82.08;98529.31;5076901;28;40614;-84
2023/03/22 06:11:34;;;;;;;8.13;7.33;;;;;;;9.55;81.88;98527.97;5093117;28;42863;-80
2023/03/22 06:14:04;;;;;;;9.73;7.30;;;;;;;9.63;81.61;98528.34;5090427;28;42215;-82
2023/03/22 06:16:46;;;;;;;7.87;7.10;;;;;;;9.71;81.71;98528.69;5076999;28;40118;-84
2023/03/22 06:19:16;;;;;;;9.60;7.70;;;;;;;9.81;82.07;98528.94;5076317;28;42023;-84
2023/03/22 06:21:44;;;;;;;9.97;8.20;;;;;;;9.86;82.38;98516.28;5076530;28;43651;-82
2023/03/22 06:24:15;;;;;;;8.70;7.70;;;;;;;10.00;82.32;98523.31;5075938;28;41075;-83
2023/03/22 06:26:43;;;;;;;8.67;7.23;;;;;;;10.15;81.82;98534.69;5076302;28;38986;-82
2023/03/22 06:29:12;;;;;;;10.67;8.43;;;;;;;10.30;81.61;98531.91;5076113;28;40800;-84
2023/03/22 06:31:39;;;;;;;8.20;7.40;;;;;;;10.48;81.21;98529.00;5093047;28;43584;-81
2023/03/22 06:34:09;;;;;;;9.13;8.07;;;;;;;10.57;81.01;98497.44;5076183;28;41273;-82
2023/03/22 06:36:41;;;;;;;8.23;7.43;;;;;;;10.83;80.12;98514.19;5090122;28;40017;-80
2023/03/22 06:39:13;;;;;;;9.27;7.60;;;;;;;11.07;79.97;98527.53;5076328;28;40698;-83
2023/03/22 06:41:44;;;;;;;7.60;6.50;;;;;;;11.22;79.49;98533.56;5075947;28;42169;-82
2023/03/22 06:44:13;;;;;;;7.80;7.03;;;;;;;11.35;79.19;98521.16;5075542;28;41436;-81
2023/03/22 06:47:01;;;;;;;7.57;6.50;;;;;;;11.58;78.38;98532.75;5088303;28;40037;-84
2023/03/22 06:49:46;;;;;;;7.40;6.40;;;;;;;11.80;77.88;98543.56;5090465;28;41740;-83
2023/03/22 06:52:25;;;;;;;7.47;6.70;;;;;;;11.97;77.76;98542.34;5089841;28;42841;-82
2023/03/22 06:54:53;;;;;;;7.27;6.17;;;;;;;12.08;77.46;98545.06;5092709;28;42513;-83
2023/03/22 06:57:21;;;;;;;7.10;6.40;;;;;;;12.16;77.08;98550.63;5092889;28;39928;-82
2023/03/22 06:59:49;;;;;;;9.60;7.23;;;;;;;12.22;76.65;98544.88;5093327;28;41751;-83
2023/03/22 07:02:17;;;;;;;6.57;5.97;;;;;;;12.31;76.54;98549.50;5092969;28;42195;-81
2023/03/22 07:05:05;;;;;;;7.27;6.57;;;;;;;12.42;75.80;98546.88;5091926;28;41216;-83
2023/03/22 07:07:35;;;;;;;6.80;6.10;;;;;;;12.76;75.25;98557.59;5075617;28;39908;-85
2023/03/22 07:10:03;;;;;;;6.77;6.07;;;;;;;12.89;74.61;98542.44;5074843;28;41152;-82
2023/03/22 07:12:32;;;;;;;9.10;7.00;;;;;;;13.39;73.52;98548.31;5075385;28;42104;-82
2023/03/22 07:15:05;;;;;;;7.10;5.93;;;;;;;13.60;72.47;98546.59;5075296;28;41159;-81
2023/03/22 07:17:44;;;;;;;6.77;6.03;;;;;;;15.35;69.14;98562.13;5089392;28;40239;-81
2023/03/22 07:20:12;;;;;;;7.00;5.97;;;;;;;17.18;63.74;98573.13;5075313;28;40910;-81
2023/03/22 07:22:42;;;;;;;6.00;5.40;;;;;;;19.46;57.19;98597.94;5074405;28;41739;-82
2023/03/22 07:25:10;;;;;;;6.17;5.20;;;;;;;21.26;52.38;98619.09;5074876;28;41500;-84
2023/03/22 07:27:38;;;;;;;6.30;4.83;;;;;;;23.20;49.22;98626.38;5075212;28;39191;-85
2023/03/22 07:30:07;;;;;;;8.53;4.90;;;;;;;24.72;44.30;98644.00;5074609;28;40801;-81
2023/03/22 07:32:40;;;;;;;5.03;4.20;;;;;;;25.81;40.78;98659.91;5074722;28;41851;-78
2023/03/22 07:35:11;;;;;;;5.00;3.90;;;;;;;26.74;38.64;98643.06;5074176;28;42733;-79
2023/03/22 07:37:42;;;;;;;4.50;4.10;;;;;;;27.91;35.56;98678.00;5091537;28;41006;-78
2023/03/22 07:40:19;;;;;;;5.55;3.85;;;;;;;28.24;35.64;98661.63;5074390;28;40977;-78
2023/03/22 07:42:48;;;;;;;4.93;3.40;;;;;;;28.16;34.45;98670.00;5074643;28;42888;-82
2023/03/22 07:45:24;;;;;;;4.60;3.67;;;;;;;28.33;33.80;98654.88;5074255;28;42209;-78
2023/03/22 07:48:14;;;;;;;3.97;3.13;;;;;;;29.53;31.16;98681.38;5080957;28;40027;-80
2023/03/22 07:50:56;;;;;;;3.80;2.90;;;;;;;30.40;29.94;98673.22;5073943;28;41118;-79
2023/03/22 07:53:27;;;;;;;2.60;2.40;;;;;;;31.03;28.54;98690.94;5074359;28;41676;-77
2023/03/22 07:55:55;;;;;;;3.47;2.60;;;;;;;31.10;28.38;98654.50;5073712;28;41092;-79
2023/03/22 07:58:23;;;;;;;2.33;2.10;;;;;;;31.23;27.86;98692.59;5091574;28;39795;-78
2023/03/22 08:00:51;;;;;;;2.40;2.20;;;;;;;30.22;28.51;98688.53;5073798;28;41075;-78
2023/03/22 08:03:45;;;;;;;2.93;2.47;;;;;;;28.23;30.37;98662.66;5092242;28;42413;-78
2023/03/22 08:06:22;;;;;;;2.27;2.07;;;;;;;26.94;31.78;98664.06;5074155;28;42617;-79
2023/03/22 08:08:52;;;;;;;3.20;2.00;;;;;;;25.81;32.82;98640.91;5074454;28;38817;-77
2023/03/22 08:11:20;;;;;;;5.40;2.50;;;;;;;24.64;34.67;98636.81;5093284;28;41744;-79
2023/03/22 08:13:47;;;;;;;3.47;2.00;;;;;;;23.72;36.73;98625.59;5111683;28;44008;-78
2023/03/22 08:16:15;;;;;;;2.43;2.00;;;;;;;22.94;37.45;98604.28;5099252;28;42646;-78
2023/03/22 08:18:43;;;;;;;3.13;1.90;;;;;;;22.68;38.35;98607.31;5093780;28;40321;-79
2023/03/22 08:21:11;;;;;;;3.43;1.93;;;;;;;22.76;38.20;98611.84;5077824;28;40485;-79
2023/03/22 08:23:39;;;;;;;2.40;1.97;;;;;;;24.13;36.68;98622.41;5077254;28;41427;-77
2023/03/22 08:26:29;;;;;;;3.83;2.33;;;;;;;25.59;35.25;98628.41;5072106;28;41453;-80
2023/03/22 08:29:03;;;;;;;2.87;1.67;;;;;;;26.68;33.12;98648.50;5077776;28;40221;-79
2023/03/22 08:31:35;;;;;;;5.13;2.03;;;;;;;27.71;31.37;98666.28;5077937;28;40749;-79
2023/03/22 08:34:03;;;;;;;2.17;1.93;;;;;;;26.89;31.62;98636.63;5094052;28;42463;-79
2023/03/22 08:36:33;;;;;;;2.73;1.83;;;;;;;26.93;32.10;98662.41;5077423;28;42372;-78
2023/03/22 08:39:04;;;;;;;3.07;1.90;;;;;;;28.43;29.69;98673.53;5077717;28;38729;-80
2023/03/22 08:41:45;;;;;;;3.00;2.20;;;;;;;29.70;27.13;98684.38;5077211;28;40676;-78
2023/03/22 08:44:13;;;;;;;2.03;1.70;;;;;;;30.68;26.17;98692.66;5094196;28;42776;-78
2023/03/22 08:46:41;;;;;;;3.50;1.40;;;;;;;31.57;26.28;98672.69;5077554;28;41595;-80
2023/03/22 08:49:10;;;;;;;3.22;2.05;;;;;;;32.99;24.00;98705.34;5077375;28;39134;-80
2023/03/22 08:51:52;;;;;;;2.97;1.77;;;;;;;33.98;23.01;98695.66;5091206;28;41750;-80
2023/03/22 08:54:46;;;;;;;1.85;1.60;;;;;;;34.29;22.26;98699.72;5077730;28;41403;-84
2023/03/22 08:57:49;;;;;;;3.28;1.40;;;;;;;34.31;22.76;98700.28;5071131;28;42202;-80
2023/03/22 09:00:37;;;;;;;1.67;1.27;;;;;;;35.02;21.64;98692.97;5083048;28;40034;-78
2023/03/22 09:03:12;;;;;;;2.10;1.52;;;;;;;35.74;20.54;98709.19;5093022;28;41062;-79
2023/03/22 09:05:44;;;;;;;1.70;1.55;;;;;;;36.33;20.34;98704.44;5076094;28;41826;-79
2023/03/22 09:08:12;;;;;;;1.98;1.10;;;;;;;37.23;19.94;98693.28;5076819;28;41051;-80
2023/03/22 09:10:42;;;;;;;1.50;0.95;;;;;;;38.20;19.48;98685.94;5093554;28;39569;-80
2023/03/22 09:13:15;;;;;;;1.42;1.25;;;;;;;35.99;20.53;98657.03;5093911;28;41664;-80
2023/03/22 09:15:51;;;;;;;1.42;1.30;;;;;;;34.88;21.52;98670.53;5076868;28;41411;-82
2023/03/22 09:18:24;;;;;;;2.92;1.63;;;;;;;34.47;21.80;98680.19;5076064;28;41326;-79
2023/03/22 09:20:53;;;;;;;3.60;1.40;;;;;;;33.59;22.40;98650.75;5076548;28;40227;-80
2023/03/22 09:23:25;;;;;;;2.50;1.50;;;;;;;34.14;22.16;98663.72;5075679;28;42097;-80
2023/03/22 09:25:54;;;;;;;2.13;1.40;;;;;;;32.63;23.27;98655.22;5076088;28;41907;-80
2023/03/22 09:28:26;;;;;;;1.33;1.20;;;;;;;31.16;24.64;98650.84;5089640;28;42276;-79
2023/03/22 09:31:00;;;;;;;1.73;1.53;;;;;;;29.72;26.12;98626.81;5075975;28;39671;-77
2023/03/22 09:33:28;;;;;;;1.53;1.43;;;;;;;29.56;27.11;98622.75;5089437;28;42896;-79
2023/03/22 09:35:56;;;;;;;1.80;1.70;;;;;;;28.90;27.72;98607.72;5093142;28;42770;-79
2023/03/22 09:38:26;;;;;;;1.97;1.30;;;;;;;28.19;28.44;98604.22;5093389;28;43257;-78
2023/03/22 09:40:59;;;;;;;2.60;1.87;;;;;;;28.16;28.08;98596.47;5093217;28;40460;-81
2023/03/22 09:43:34;;;;;;;1.87;1.27;;;;;;;27.60;29.13;98617.94;5076211;28;42968;-79
2023/03/22 09:46:05;;;;;;;2.40;1.20;;;;;;;26.83;29.03;98614.66;5076412;28;41843;-80
2023/03/22 09:48:35;;;;;;;2.73;1.50;;;;;;;27.00;29.71;98608.88;5092758;28;40978;-80
2023/03/22 09:51:06;;;;;;;2.30;1.50;;;;;;;26.24;30.02;98597.28;5076146;28;39891;-79
2023/03/22 09:53:34;;;;;;;2.50;1.60;;;;;;;25.18;31.51;98574.91;5089889;28;41579;-77
2023/03/22 09:56:10;;;;;;;2.87;1.60;;;;;;;25.36;32.14;98583.38;5092683;28;42656;-78
2023/03/22 09:58:50;;;;;;;2.37;1.40;;;;;;;26.33;31.95;98575.25;5075764;28;42523;-78
2023/03/22 10:01:29;;;;;;;1.73;1.40;;;;;;;27.87;29.97;98565.13;5092601;28;40869;-80
2023/03/22 10:04:25;;;;;;;1.60;1.50;;;;;;;28.43;28.01;98580.91;5075537;28;41660;-78
2023/03/22 10:07:05;;;;;;;2.30;1.50;;;;;;;27.90;28.57;98578.31;5077052;28;42376;-79
2023/03/22 10:09:41;;;;;;;1.37;1.27;;;;;;;26.79;29.40;98579.97;5092534;28;41500;-80
2023/03/22 10:12:17;;;;;;;2.40;1.30;;;;;;;25.99;30.51;98575.25;5076228;28;40348;-79
2023/03/22 10:14:51;;;;;;;1.83;1.30;;;;;;;26.66;30.17;98559.03;5092538;28;40508;-79
2023/03/22 10:17:22;;;;;;;1.90;1.47;;;;;;;26.95;29.46;98576.91;5090621;28;43768;-78
2023/03/22 10:19:53;;;;;;;3.03;1.40;;;;;;;26.41;30.07;98568.78;5093047;28;41995;-79
2023/03/22 10:22:28;;;;;;;1.43;1.27;;;;;;;28.31;28.47;98572.56;5090234;28;40998;-80
2023/03/22 10:24:57;;;;;;;1.83;1.10;;;;;;;30.28;25.45;98586.56;5075637;28;42034;-78
2023/03/22 10:27:28;;;;;;;2.30;1.40;;;;;;;31.35;24.49;98564.84;5093684;28;42685;-80
2023/03/22 10:30:01;;;;;;;1.73;1.35;;;;;;;32.85;23.27;98588.75;5076115;28;42192;-81
2023/03/22 10:32:36;;;;;;;2.42;1.30;;;;;;;32.60;23.44;98611.00;5076078;28;39145;-80
2023/03/22 10:35:04;;;;;;;4.22;1.30;;;;;;;33.83;22.42;98612.97;5092128;28;41605;-80
2023/03/22 10:37:35;;;;;;;1.50;1.40;;;;;;;33.93;21.96;98617.78;5075151;28;41474;-79
2023/03/22 10:40:06;;;;;;;1.95;1.30;;;;;;;33.18;22.37;98613.50;5091422;28;42752;-80
2023/03/22 10:42:37;;;;;;;3.60;1.20;;;;;;;31.60;23.33;98609.28;5075115;28;38711;-80
2023/03/22 10:45:12;;;;;;;2.80;1.70;;;;;;;31.62;23.27;98598.91;5074831;28;40380;-79
2023/03/22 10:47:43;;;;;;;2.28;1.30;;;;;;;31.86;23.79;98585.25;5089878;28;44225;-78
2023/03/22 10:50:15;;;;;;;2.85;1.30;;;;;;;32.94;23.25;98598.22;5074523;28;42605;-82
2023/03/22 10:52:50;;;;;;;2.13;1.30;;;;;;;32.04;23.53;98594.16;5075086;28;40213;-82
2023/03/22 10:55:18;;;;;;;2.10;1.20;;;;;;;31.49;23.91;98590.09;5075123;28;41508;-79
2023/03/22 10:57:56;;;;;;;2.23;1.20;;;;;;;31.29;24.29;98595.88;5091584;28;43089;-79
2023/03/22 11:00:27;;;;;;;1.25;1.10;;;;;;;32.92;22.31;98594.88;5089881;28;42626;-78
2023/03/22 11:02:59;;;;;;;1.80;1.05;;;;;;;33.81;22.48;98588.50;5101603;28;40373;-76
2023/03/22 11:05:29;;;;;;;1.98;1.30;;;;;;;35.78;19.97;98596.53;5086393;28;41503;-82
2023/03/22 11:07:58;;;;;;;1.60;1.13;;;;;;;36.19;19.15;98614.97;5075316;28;41624;-81
2023/03/22 11:10:30;;;;;;;1.73;1.08;;;;;;;33.91;20.41;98608.97;5092995;28;42211;-81
2023/03/22 11:13:14;;;;;;;2.10;1.40;;;;;;;32.22;22.20;98557.59;5076073;28;38968;-83
2023/03/22 11:15:51;;;;;;;1.65;1.45;;;;;;;33.24;22.30;98592.50;5092199;28;42444;-81
2023/03/22 11:18:19;;;;;;;1.42;1.30;;;;;;;33.69;22.01;98573.16;5089945;28;43755;-81
2023/03/22 11:20:58;;;;;;;1.83;1.70;;;;;;;33.51;21.84;98583.31;5090789;28;41178;-80
2023/03/22 11:23:27;;;;;;;3.25;1.30;;;;;;;33.21;22.12;98576.47;5091726;28;40037;-83
2023/03/22 11:25:59;;;;;;;1.83;1.33;;;;;;;32.70;21.94;98591.97;5091157;28;42550;-80
2023/03/22 11:28:33;;;;;;;1.70;1.60;;;;;;;33.38;21.12;98588.34;5075148;28;42828;-83
2023/03/22 11:31:07;;;;;;;2.58;1.60;;;;;;;33.82;20.69;98589.34;5093593;28;20227;-83
2023/03/22 11:33:36;;;;;;;1.70;1.20;;;;;;;34.11;20.76;98576.28;5090179;28;40974;-80
2023/03/22 11:36:14;;;;;;;1.83;1.38;;;;;;;32.89;22.21;98568.78;5091520;28;42836;-79
2023/03/22 11:38:43;;;;;;;1.92;1.23;;;;;;;33.44;21.98;98557.13;5089741;28;42649;-79
2023/03/22 11:41:20;;;;;;;1.20;1.10;;;;;;;34.46;20.63;98570.44;5074616;28;41153;-79
2023/03/22 11:43:51;;;;;;;1.30;1.20;;;;;;;32.86;21.96;98563.81;5074556;28;40166;-81
2023/03/22 11:46:21;;;;;;;1.40;1.00;;;;;;;31.27;22.48;98526.91;5074857;28;40352;-80
2023/03/22 11:48:51;;;;;;;1.33;1.23;;;;;;;30.62;22.73;98557.75;5092533;28;43665;-82
2023/03/22 11:51:29;;;;;;;1.63;1.10;;;;;;;30.70;23.21;98542.91;5091737;28;42287;-81
2023/03/22 11:54:07;;;;;;;2.13;1.10;;;;;;;31.54;22.47;98522.59;5076397;28;40150;-84
2023/03/22 11:56:39;;;;;;;2.57;1.20;;;;;;;33.88;21.51;98539.69;5075365;28;40545;-85
2023/03/22 11:59:15;;;;;;;2.03;1.00;;;;;;;36.34;20.26;98550.81;5075898;28;42079;-86
2023/03/22 12:01:50;;;;;;;1.40;1.10;;;;;;;37.03;18.40;98548.53;5075800;28;41224;-88
2023/03/22 12:04:21;;;;;;;1.45;1.23;;;;;;;36.21;18.71;98545.78;5075199;28;38865;-85
2023/03/22 12:06:54;;;;;;;1.27;0.90;;;;;;;35.51;18.97;98555.25;5089230;28;41822;-87